sensor_id;sensor_type;location;lat;lon;timestamp;temperature;humidity
17988;DHT22;9119;50.932;5.342;2023-01-16T00:00:27;6.50;99.90
17988;DHT22;9119;50.932;5.342;2023-01-16T00:02:53;6.30;99.90
17988;DHT22;9119;50.932;5.342;2023-01-16T00:05:19;6.30;99.90
17988;DHT22;9119;50.932;5.342;2023-01-16T00:07:44;6.40;99.90
17988;DHT22;9119;50.932;5.342;2023-01-16T00:10:10;6.50;99.90
17988;DHT22;9119;50.932;5.342;2023-01-16T00:12:37;6.30;99.90
17988;DHT22;9119;50.932;5.342;2023-01-16T00:15:03;6.30;99.90
17988;DHT22;9119;50.932;5.342;2023-01-16T00:17:29;6.30;99.90
17988;DHT22;9119;50.932;5.342;2023-01-16T00:19:55;6.30;99.90
17988;DHT22;9119;50.932;5.342;2023-01-16T00:22:20;6.30;99.90
17988;DHT22;9119;50.932;5.342;2023-01-16T00:24:46;6.30;99.90
17988;DHT22;9119;50.932;5.342;2023-01-16T00:27:12;6.20;99.90
17988;DHT22;9119;50.932;5.342;2023-01-16T00:29:38;6.30;99.90
17988;DHT22;9119;50.932;5.342;2023-01-16T00:32:03;6.20;99.90
17988;DHT22;9119;50.932;5.342;2023-01-16T00:34:29;6.10;99.90
17988;DHT22;9119;50.932;5.342;2023-01-16T00:36:55;6.20;99.90
17988;DHT22;9119;50.932;5.342;2023-01-16T00:39:21;6.20;99.90
17988;DHT22;9119;50.932;5.342;2023-01-16T00:41:46;6.20;99.90
17988;DHT22;9119;50.932;5.342;2023-01-16T00:44:12;6.30;99.90
17988;DHT22;9119;50.932;5.342;2023-01-16T00:46:38;6.40;99.90
17988;DHT22;9119;50.932;5.342;2023-01-16T00:49:03;6.50;99.90
17988;DHT22;9119;50.932;5.342;2023-01-16T00:51:29;6.30;99.90
17988;DHT22;9119;50.932;5.342;2023-01-16T00:53:55;6.40;99.90
17988;DHT22;9119;50.932;5.342;2023-01-16T00:56:20;6.50;99.90
17988;DHT22;9119;50.932;5.342;2023-01-16T00:58:46;6.20;99.90
17988;DHT22;9119;50.932;5.342;2023-01-16T01:01:12;6.20;99.90
17988;DHT22;9119;50.932;5.342;2023-01-16T01:03:37;5.90;99.90
17988;DHT22;9119;50.932;5.342;2023-01-16T01:06:10;6.00;99.90
17988;DHT22;9119;50.932;5.342;2023-01-16T01:08:38;6.00;99.90
17988;DHT22;9119;50.932;5.342;2023-01-16T01:11:12;5.90;99.90
17988;DHT22;9119;50.932;5.342;2023-01-16T01:13:39;5.90;99.90
17988;DHT22;9119;50.932;5.342;2023-01-16T01:16:05;6.00;99.90
17988;DHT22;9119;50.932;5.342;2023-01-16T01:18:33;5.70;99.90
17988;DHT22;9119;50.932;5.342;2023-01-16T01:20:59;5.80;99.90
17988;DHT22;9119;50.932;5.342;2023-01-16T01:23:25;5.70;99.90
17988;DHT22;9119;50.932;5.342;2023-01-16T01:25:51;5.70;99.90
17988;DHT22;9119;50.932;5.342;2023-01-16T01:28:18;5.70;99.90
17988;DHT22;9119;50.932;5.342;2023-01-16T01:30:44;5.70;99.90
17988;DHT22;9119;50.932;5.342;2023-01-16T01:33:09;5.70;99.90
17988;DHT22;9119;50.932;5.342;2023-01-16T01:35:36;5.70;99.90
17988;DHT22;9119;50.932;5.342;2023-01-16T01:38:01;5.70;99.90
17988;DHT22;9119;50.932;5.342;2023-01-16T01:40:27;5.80;99.90
17988;DHT22;9119;50.932;5.342;2023-01-16T01:42:53;5.70;99.90
17988;DHT22;9119;50.932;5.342;2023-01-16T01:48:08;5.90;99.90
17988;DHT22;9119;50.932;5.342;2023-01-16T01:55:50;5.90;99.90
17988;DHT22;9119;50.932;5.342;2023-01-16T01:58:19;6.00;99.90
17988;DHT22;9119;50.932;5.342;2023-01-16T02:00:50;5.80;99.90
17988;DHT22;9119;50.932;5.342;2023-01-16T02:03:33;6.10;99.90
17988;DHT22;9119;50.932;5.342;2023-01-16T02:06:03;5.80;99.90
17988;DHT22;9119;50.932;5.342;2023-01-16T02:08:33;5.80;99.90
17988;DHT22;9119;50.932;5.342;2023-01-16T02:11:12;5.80;99.90
17988;DHT22;9119;50.932;5.342;2023-01-16T02:14:02;5.90;99.90
17988;DHT22;9119;50.932;5.342;2023-01-16T02:16:29;5.90;99.90
17988;DHT22;9119;50.932;5.342;2023-01-16T02:31:00;5.80;99.90
17988;DHT22;9119;50.932;5.342;2023-01-16T02:38:54;5.80;99.90
17988;DHT22;9119;50.932;5.342;2023-01-16T02:41:32;5.80;99.90
17988;DHT22;9119;50.932;5.342;2023-01-16T02:44:24;5.80;99.90
17988;DHT22;9119;50.932;5.342;2023-01-16T02:49:29;5.80;99.90
17988;DHT22;9119;50.932;5.342;2023-01-16T02:52:15;5.80;99.90
17988;DHT22;9119;50.932;5.342;2023-01-16T02:54:53;5.70;99.90
17988;DHT22;9119;50.932;5.342;2023-01-16T02:57:22;5.80;99.90
17988;DHT22;9119;50.932;5.342;2023-01-16T02:59:49;5.80;99.90
17988;DHT22;9119;50.932;5.342;2023-01-16T03:02:15;5.70;99.90
17988;DHT22;9119;50.932;5.342;2023-01-16T03:04:45;5.70;99.90
17988;DHT22;9119;50.932;5.342;2023-01-16T03:19:57;5.70;99.90
17988;DHT22;9119;50.932;5.342;2023-01-16T03:25:20;5.70;99.90
17988;DHT22;9119;50.932;5.342;2023-01-16T03:30:33;6.00;99.90
17988;DHT22;9119;50.932;5.342;2023-01-16T03:35:59;5.70;99.90
17988;DHT22;9119;50.932;5.342;2023-01-16T03:38:29;5.70;99.90
17988;DHT22;9119;50.932;5.342;2023-01-16T03:40:58;5.80;99.90
17988;DHT22;9119;50.932;5.342;2023-01-16T03:43:33;5.80;99.90
17988;DHT22;9119;50.932;5.342;2023-01-16T03:46:12;5.80;99.90
17988;DHT22;9119;50.932;5.342;2023-01-16T03:48:50;5.80;99.90
17988;DHT22;9119;50.932;5.342;2023-01-16T03:51:30;5.80;99.90
17988;DHT22;9119;50.932;5.342;2023-01-16T03:54:19;5.80;99.90
17988;DHT22;9119;50.932;5.342;2023-01-16T03:57:10;5.80;99.90
17988;DHT22;9119;50.932;5.342;2023-01-16T03:59:38;5.80;99.90
17988;DHT22;9119;50.932;5.342;2023-01-16T04:02:28;5.80;99.90
17988;DHT22;9119;50.932;5.342;2023-01-16T04:05:15;6.00;99.90
17988;DHT22;9119;50.932;5.342;2023-01-16T04:10:34;5.90;99.90
17988;DHT22;9119;50.932;5.342;2023-01-16T04:13:07;5.90;99.90
17988;DHT22;9119;50.932;5.342;2023-01-16T04:15:35;5.90;99.90
17988;DHT22;9119;50.932;5.342;2023-01-16T04:18:02;6.00;99.90
17988;DHT22;9119;50.932;5.342;2023-01-16T04:20:29;6.00;99.90
17988;DHT22;9119;50.932;5.342;2023-01-16T04:22:56;6.00;99.90
17988;DHT22;9119;50.932;5.342;2023-01-16T04:25:22;6.00;99.90
17988;DHT22;9119;50.932;5.342;2023-01-16T04:27:47;6.10;99.90
17988;DHT22;9119;50.932;5.342;2023-01-16T04:30:13;6.00;99.90
17988;DHT22;9119;50.932;5.342;2023-01-16T04:32:41;6.00;99.90
17988;DHT22;9119;50.932;5.342;2023-01-16T04:35:07;6.20;99.90
17988;DHT22;9119;50.932;5.342;2023-01-16T04:37:33;6.10;99.90
17988;DHT22;9119;50.932;5.342;2023-01-16T04:39:59;6.10;99.90
17988;DHT22;9119;50.932;5.342;2023-01-16T04:42:25;6.10;99.90
17988;DHT22;9119;50.932;5.342;2023-01-16T04:44:51;6.20;99.90
17988;DHT22;9119;50.932;5.342;2023-01-16T04:47:16;6.20;99.90
17988;DHT22;9119;50.932;5.342;2023-01-16T04:49:42;6.20;99.90
17988;DHT22;9119;50.932;5.342;2023-01-16T04:52:09;6.20;99.90
17988;DHT22;9119;50.932;5.342;2023-01-16T04:54:34;6.20;99.90
17988;DHT22;9119;50.932;5.342;2023-01-16T04:57:01;6.20;99.90
17988;DHT22;9119;50.932;5.342;2023-01-16T04:59:27;6.20;99.90
17988;DHT22;9119;50.932;5.342;2023-01-16T05:01:53;6.20;99.90
17988;DHT22;9119;50.932;5.342;2023-01-16T05:04:18;6.20;99.90
17988;DHT22;9119;50.932;5.342;2023-01-16T05:06:45;6.30;99.90
17988;DHT22;9119;50.932;5.342;2023-01-16T05:09:11;6.50;99.90
17988;DHT22;9119;50.932;5.342;2023-01-16T05:11:37;6.20;99.90
17988;DHT22;9119;50.932;5.342;2023-01-16T05:14:02;6.30;99.90
17988;DHT22;9119;50.932;5.342;2023-01-16T05:16:32;6.30;99.90
17988;DHT22;9119;50.932;5.342;2023-01-16T05:18:58;6.30;99.90
17988;DHT22;9119;50.932;5.342;2023-01-16T05:21:24;6.30;99.90
17988;DHT22;9119;50.932;5.342;2023-01-16T05:23:50;6.30;99.90
17988;DHT22;9119;50.932;5.342;2023-01-16T05:26:15;6.30;99.90
17988;DHT22;9119;50.932;5.342;2023-01-16T05:28:41;6.60;99.90
17988;DHT22;9119;50.932;5.342;2023-01-16T05:31:07;6.60;99.90
17988;DHT22;9119;50.932;5.342;2023-01-16T05:33:32;6.40;99.90
17988;DHT22;9119;50.932;5.342;2023-01-16T05:35:58;6.50;99.90
17988;DHT22;9119;50.932;5.342;2023-01-16T05:38:24;6.40;99.90
17988;DHT22;9119;50.932;5.342;2023-01-16T05:40:49;6.40;99.90
17988;DHT22;9119;50.932;5.342;2023-01-16T05:43:15;6.50;99.90
17988;DHT22;9119;50.932;5.342;2023-01-16T05:45:41;6.40;99.90
17988;DHT22;9119;50.932;5.342;2023-01-16T05:48:06;6.50;99.90
17988;DHT22;9119;50.932;5.342;2023-01-16T05:50:33;6.50;99.90
17988;DHT22;9119;50.932;5.342;2023-01-16T05:52:58;6.50;99.90
17988;DHT22;9119;50.932;5.342;2023-01-16T05:55:24;6.50;99.90
17988;DHT22;9119;50.932;5.342;2023-01-16T05:57:50;6.50;99.90
17988;DHT22;9119;50.932;5.342;2023-01-16T06:00:16;6.50;99.90
17988;DHT22;9119;50.932;5.342;2023-01-16T06:02:42;6.50;99.90
17988;DHT22;9119;50.932;5.342;2023-01-16T06:05:09;6.50;99.90
17988;DHT22;9119;50.932;5.342;2023-01-16T06:07:34;6.50;99.90
17988;DHT22;9119;50.932;5.342;2023-01-16T06:10:00;6.40;99.90
17988;DHT22;9119;50.932;5.342;2023-01-16T06:12:26;6.40;99.90
17988;DHT22;9119;50.932;5.342;2023-01-16T06:14:52;6.30;99.90
17988;DHT22;9119;50.932;5.342;2023-01-16T06:17:17;6.30;99.90
17988;DHT22;9119;50.932;5.342;2023-01-16T06:19:45;6.20;99.90
17988;DHT22;9119;50.932;5.342;2023-01-16T06:22:12;6.30;99.90
17988;DHT22;9119;50.932;5.342;2023-01-16T06:24:38;6.20;99.90
17988;DHT22;9119;50.932;5.342;2023-01-16T06:27:04;6.20;99.90
17988;DHT22;9119;50.932;5.342;2023-01-16T06:29:29;6.10;99.90
17988;DHT22;9119;50.932;5.342;2023-01-16T06:31:55;6.10;99.90
17988;DHT22;9119;50.932;5.342;2023-01-16T06:34:21;6.10;99.90
17988;DHT22;9119;50.932;5.342;2023-01-16T06:36:46;6.10;99.90
17988;DHT22;9119;50.932;5.342;2023-01-16T06:39:14;6.10;99.90
17988;DHT22;9119;50.932;5.342;2023-01-16T06:41:40;6.10;99.90
17988;DHT22;9119;50.932;5.342;2023-01-16T06:44:06;6.00;99.90
17988;DHT22;9119;50.932;5.342;2023-01-16T06:46:32;6.10;99.90
17988;DHT22;9119;50.932;5.342;2023-01-16T06:48:58;6.30;99.90
17988;DHT22;9119;50.932;5.342;2023-01-16T06:51:23;6.00;99.90
17988;DHT22;9119;50.932;5.342;2023-01-16T06:53:49;6.00;99.90
17988;DHT22;9119;50.932;5.342;2023-01-16T06:56:15;6.00;99.90
17988;DHT22;9119;50.932;5.342;2023-01-16T06:58:42;6.00;99.90
17988;DHT22;9119;50.932;5.342;2023-01-16T07:01:08;6.00;99.90
17988;DHT22;9119;50.932;5.342;2023-01-16T07:03:34;5.90;99.90
17988;DHT22;9119;50.932;5.342;2023-01-16T07:06:00;6.20;99.90
17988;DHT22;9119;50.932;5.342;2023-01-16T07:08:26;6.00;99.90
17988;DHT22;9119;50.932;5.342;2023-01-16T07:10:52;6.00;99.90
17988;DHT22;9119;50.932;5.342;2023-01-16T07:13:17;6.00;99.90
17988;DHT22;9119;50.932;5.342;2023-01-16T07:15:48;6.00;99.90
17988;DHT22;9119;50.932;5.342;2023-01-16T07:18:32;6.00;99.90
17988;DHT22;9119;50.932;5.342;2023-01-16T07:21:16;6.00;99.90
17988;DHT22;9119;50.932;5.342;2023-01-16T07:24:04;6.00;99.90
17988;DHT22;9119;50.932;5.342;2023-01-16T07:26:32;6.00;99.90
17988;DHT22;9119;50.932;5.342;2023-01-16T07:28:59;6.10;99.90
17988;DHT22;9119;50.932;5.342;2023-01-16T07:31:25;6.10;99.90
17988;DHT22;9119;50.932;5.342;2023-01-16T07:33:51;6.00;99.90
17988;DHT22;9119;50.932;5.342;2023-01-16T07:36:17;6.10;99.90
17988;DHT22;9119;50.932;5.342;2023-01-16T07:38:42;6.00;99.90
17988;DHT22;9119;50.932;5.342;2023-01-16T07:41:08;6.30;99.90
17988;DHT22;9119;50.932;5.342;2023-01-16T07:43:34;6.00;99.90
17988;DHT22;9119;50.932;5.342;2023-01-16T07:46:00;6.00;99.90
17988;DHT22;9119;50.932;5.342;2023-01-16T07:48:26;6.00;99.90
17988;DHT22;9119;50.932;5.342;2023-01-16T07:50:56;6.00;99.90
17988;DHT22;9119;50.932;5.342;2023-01-16T07:53:24;6.00;99.90
17988;DHT22;9119;50.932;5.342;2023-01-16T07:55:52;6.00;99.90
17988;DHT22;9119;50.932;5.342;2023-01-16T07:58:19;6.00;99.90
17988;DHT22;9119;50.932;5.342;2023-01-16T08:00:46;5.90;99.90
17988;DHT22;9119;50.932;5.342;2023-01-16T08:03:13;5.90;99.90
17988;DHT22;9119;50.932;5.342;2023-01-16T08:05:39;5.80;99.90
17988;DHT22;9119;50.932;5.342;2023-01-16T08:08:08;5.70;99.90
17988;DHT22;9119;50.932;5.342;2023-01-16T08:10:34;5.90;99.90
17988;DHT22;9119;50.932;5.342;2023-01-16T08:13:00;5.70;99.90
17988;DHT22;9119;50.932;5.342;2023-01-16T08:15:26;6.00;99.90
17988;DHT22;9119;50.932;5.342;2023-01-16T08:17:51;5.80;99.90
17988;DHT22;9119;50.932;5.342;2023-01-16T08:20:17;5.90;99.90
17988;DHT22;9119;50.932;5.342;2023-01-16T08:22:47;5.70;99.90
17988;DHT22;9119;50.932;5.342;2023-01-16T08:25:16;5.70;99.90
17988;DHT22;9119;50.932;5.342;2023-01-16T08:27:42;5.70;99.90
17988;DHT22;9119;50.932;5.342;2023-01-16T08:30:09;5.70;99.90
17988;DHT22;9119;50.932;5.342;2023-01-16T08:32:35;5.70;99.90
17988;DHT22;9119;50.932;5.342;2023-01-16T08:35:01;5.90;99.90
17988;DHT22;9119;50.932;5.342;2023-01-16T08:37:29;5.70;99.90
17988;DHT22;9119;50.932;5.342;2023-01-16T08:39:55;5.80;99.90
17988;DHT22;9119;50.932;5.342;2023-01-16T08:42:21;5.60;99.90
17988;DHT22;9119;50.932;5.342;2023-01-16T08:45:08;5.60;99.90
17988;DHT22;9119;50.932;5.342;2023-01-16T08:47:52;5.60;99.90
17988;DHT22;9119;50.932;5.342;2023-01-16T08:50:36;5.60;99.90
17988;DHT22;9119;50.932;5.342;2023-01-16T08:53:20;5.60;99.90
17988;DHT22;9119;50.932;5.342;2023-01-16T08:55:46;5.60;99.90
17988;DHT22;9119;50.932;5.342;2023-01-16T08:58:11;5.70;99.90
17988;DHT22;9119;50.932;5.342;2023-01-16T09:00:37;5.60;99.90
17988;DHT22;9119;50.932;5.342;2023-01-16T09:03:03;5.60;99.90
17988;DHT22;9119;50.932;5.342;2023-01-16T09:05:29;5.60;99.90
17988;DHT22;9119;50.932;5.342;2023-01-16T09:07:54;5.60;99.90
17988;DHT22;9119;50.932;5.342;2023-01-16T09:10:20;5.60;99.90
17988;DHT22;9119;50.932;5.342;2023-01-16T09:12:46;5.60;99.90
17988;DHT22;9119;50.932;5.342;2023-01-16T09:15:31;5.70;99.90
17988;DHT22;9119;50.932;5.342;2023-01-16T09:17:56;5.70;99.90
17988;DHT22;9119;50.932;5.342;2023-01-16T09:20:22;5.70;99.90
17988;DHT22;9119;50.932;5.342;2023-01-16T09:22:47;5.60;99.90
17988;DHT22;9119;50.932;5.342;2023-01-16T09:25:13;5.60;99.90
17988;DHT22;9119;50.932;5.342;2023-01-16T09:27:39;5.60;99.90
17988;DHT22;9119;50.932;5.342;2023-01-16T09:30:05;5.60;99.90
17988;DHT22;9119;50.932;5.342;2023-01-16T09:32:31;5.60;99.90
17988;DHT22;9119;50.932;5.342;2023-01-16T09:34:59;5.60;99.90
17988;DHT22;9119;50.932;5.342;2023-01-16T09:37:24;5.60;99.90
17988;DHT22;9119;50.932;5.342;2023-01-16T09:39:50;5.70;99.90
17988;DHT22;9119;50.932;5.342;2023-01-16T09:42:36;5.80;99.90
17988;DHT22;9119;50.932;5.342;2023-01-16T09:45:26;5.80;99.90
17988;DHT22;9119;50.932;5.342;2023-01-16T09:47:56;5.90;99.90
17988;DHT22;9119;50.932;5.342;2023-01-16T09:50:50;6.20;99.90
17988;DHT22;9119;50.932;5.342;2023-01-16T09:53:38;6.10;99.90
17988;DHT22;9119;50.932;5.342;2023-01-16T09:56:28;6.20;99.90
17988;DHT22;9119;50.932;5.342;2023-01-16T09:59:20;6.20;99.90
17988;DHT22;9119;50.932;5.342;2023-01-16T10:02:07;6.30;99.90
17988;DHT22;9119;50.932;5.342;2023-01-16T10:04:35;6.30;99.90
17988;DHT22;9119;50.932;5.342;2023-01-16T10:25:56;6.60;99.90
17988;DHT22;9119;50.932;5.342;2023-01-16T10:31:31;6.70;99.90
17988;DHT22;9119;50.932;5.342;2023-01-16T10:34:20;6.80;99.90
17988;DHT22;9119;50.932;5.342;2023-01-16T10:36:51;6.90;99.90
17988;DHT22;9119;50.932;5.342;2023-01-16T10:39:20;6.90;99.90
17988;DHT22;9119;50.932;5.342;2023-01-16T10:41:49;7.00;99.90
17988;DHT22;9119;50.932;5.342;2023-01-16T10:44:54;7.00;99.90
17988;DHT22;9119;50.932;5.342;2023-01-16T10:47:39;7.00;99.90
17988;DHT22;9119;50.932;5.342;2023-01-16T10:50:25;6.90;99.90
17988;DHT22;9119;50.932;5.342;2023-01-16T10:52:51;7.00;99.90
17988;DHT22;9119;50.932;5.342;2023-01-16T10:55:17;7.20;99.90
17988;DHT22;9119;50.932;5.342;2023-01-16T10:57:53;7.00;99.90
17988;DHT22;9119;50.932;5.342;2023-01-16T11:00:41;7.00;99.90
17988;DHT22;9119;50.932;5.342;2023-01-16T11:03:26;6.90;99.90
17988;DHT22;9119;50.932;5.342;2023-01-16T11:08:33;6.70;99.90
17988;DHT22;9119;50.932;5.342;2023-01-16T11:11:00;6.70;99.90
17988;DHT22;9119;50.932;5.342;2023-01-16T11:13:27;6.80;99.90
17988;DHT22;9119;50.932;5.342;2023-01-16T11:19:17;6.80;99.90
17988;DHT22;9119;50.932;5.342;2023-01-16T11:21:55;6.80;99.90
17988;DHT22;9119;50.932;5.342;2023-01-16T11:24:33;6.70;99.90
17988;DHT22;9119;50.932;5.342;2023-01-16T11:27:00;6.70;99.90
17988;DHT22;9119;50.932;5.342;2023-01-16T11:29:33;6.80;99.90
17988;DHT22;9119;50.932;5.342;2023-01-16T11:32:04;6.80;99.90
17988;DHT22;9119;50.932;5.342;2023-01-16T11:34:30;6.90;99.90
17988;DHT22;9119;50.932;5.342;2023-01-16T11:37:07;6.90;99.90
17988;DHT22;9119;50.932;5.342;2023-01-16T11:39:34;6.90;99.90
17988;DHT22;9119;50.932;5.342;2023-01-16T11:42:08;6.90;99.90
17988;DHT22;9119;50.932;5.342;2023-01-16T11:44:54;7.00;99.90
17988;DHT22;9119;50.932;5.342;2023-01-16T11:47:42;7.10;99.90
17988;DHT22;9119;50.932;5.342;2023-01-16T11:50:32;7.30;99.90
17988;DHT22;9119;50.932;5.342;2023-01-16T11:52:58;7.50;99.90
17988;DHT22;9119;50.932;5.342;2023-01-16T11:58:42;7.50;99.90
17988;DHT22;9119;50.932;5.342;2023-01-16T12:04:19;7.60;99.90
17988;DHT22;9119;50.932;5.342;2023-01-16T12:07:19;7.70;99.90
17988;DHT22;9119;50.932;5.342;2023-01-16T12:09:50;7.80;99.90
17988;DHT22;9119;50.932;5.342;2023-01-16T12:15:30;7.80;99.90
17988;DHT22;9119;50.932;5.342;2023-01-16T12:18:27;7.90;99.90
17988;DHT22;9119;50.932;5.342;2023-01-16T12:21:01;7.60;99.90
17988;DHT22;9119;50.932;5.342;2023-01-16T12:26:30;7.40;99.90
17988;DHT22;9119;50.932;5.342;2023-01-16T12:29:15;7.20;99.90
17988;DHT22;9119;50.932;5.342;2023-01-16T12:37:31;7.00;99.90
17988;DHT22;9119;50.932;5.342;2023-01-16T12:42:58;7.00;99.90
17988;DHT22;9119;50.932;5.342;2023-01-16T12:45:56;7.00;99.90
17988;DHT22;9119;50.932;5.342;2023-01-16T12:48:54;6.80;99.90
17988;DHT22;9119;50.932;5.342;2023-01-16T12:54:36;6.60;99.90
17988;DHT22;9119;50.932;5.342;2023-01-16T13:05:16;6.80;99.90
17988;DHT22;9119;50.932;5.342;2023-01-16T13:08:06;6.80;99.90
17988;DHT22;9119;50.932;5.342;2023-01-16T13:10:39;6.90;99.90
17988;DHT22;9119;50.932;5.342;2023-01-16T13:13:30;7.10;99.90
17988;DHT22;9119;50.932;5.342;2023-01-16T13:18:40;7.10;99.90
17988;DHT22;9119;50.932;5.342;2023-01-16T13:21:14;7.10;99.90
17988;DHT22;9119;50.932;5.342;2023-01-16T13:26:16;7.00;99.90
17988;DHT22;9119;50.932;5.342;2023-01-16T13:31:32;7.20;99.90
17988;DHT22;9119;50.932;5.342;2023-01-16T13:34:14;7.30;99.90
17988;DHT22;9119;50.932;5.342;2023-01-16T13:42:10;7.50;99.90
17988;DHT22;9119;50.932;5.342;2023-01-16T13:44:41;7.50;99.90
17988;DHT22;9119;50.932;5.342;2023-01-16T13:47:28;7.50;99.90
17988;DHT22;9119;50.932;5.342;2023-01-16T13:50:25;7.30;99.90
17988;DHT22;9119;50.932;5.342;2023-01-16T13:53:02;7.20;99.90
17988;DHT22;9119;50.932;5.342;2023-01-16T13:55:38;7.30;99.90
17988;DHT22;9119;50.932;5.342;2023-01-16T13:58:20;7.30;99.90
17988;DHT22;9119;50.932;5.342;2023-01-16T14:00:46;7.40;99.90
17988;DHT22;9119;50.932;5.342;2023-01-16T14:03:25;7.20;99.90
17988;DHT22;9119;50.932;5.342;2023-01-16T14:05:53;7.30;99.90
17988;DHT22;9119;50.932;5.342;2023-01-16T14:08:46;7.40;99.90
17988;DHT22;9119;50.932;5.342;2023-01-16T14:11:38;7.40;99.90
17988;DHT22;9119;50.932;5.342;2023-01-16T14:14:27;7.30;99.90
17988;DHT22;9119;50.932;5.342;2023-01-16T14:17:13;7.40;99.90
17988;DHT22;9119;50.932;5.342;2023-01-16T14:22:19;7.50;99.90
17988;DHT22;9119;50.932;5.342;2023-01-16T14:24:48;7.50;99.90
17988;DHT22;9119;50.932;5.342;2023-01-16T14:27:22;7.60;99.90
17988;DHT22;9119;50.932;5.342;2023-01-16T14:29:57;7.60;99.90
17988;DHT22;9119;50.932;5.342;2023-01-16T14:32:25;7.60;99.90
17988;DHT22;9119;50.932;5.342;2023-01-16T14:37:41;7.60;99.90
17988;DHT22;9119;50.932;5.342;2023-01-16T14:42:46;7.20;99.90
17988;DHT22;9119;50.932;5.342;2023-01-16T14:45:40;7.00;99.90
17988;DHT22;9119;50.932;5.342;2023-01-16T14:53:59;7.10;99.90
17988;DHT22;9119;50.932;5.342;2023-01-16T14:56:47;6.80;99.90
17988;DHT22;9119;50.932;5.342;2023-01-16T14:59:35;6.80;99.90
17988;DHT22;9119;50.932;5.342;2023-01-16T15:02:14;6.70;99.90
17988;DHT22;9119;50.932;5.342;2023-01-16T15:05:04;6.70;99.90
17988;DHT22;9119;50.932;5.342;2023-01-16T15:07:53;6.80;99.90
17988;DHT22;9119;50.932;5.342;2023-01-16T15:18:18;7.10;99.90
17988;DHT22;9119;50.932;5.342;2023-01-16T15:21:09;7.00;99.90
17988;DHT22;9119;50.932;5.342;2023-01-16T15:24:06;7.00;99.90
17988;DHT22;9119;50.932;5.342;2023-01-16T15:30:02;6.80;99.90
17988;DHT22;9119;50.932;5.342;2023-01-16T15:32:29;6.70;99.90
17988;DHT22;9119;50.932;5.342;2023-01-16T15:37:48;6.70;99.90
17988;DHT22;9119;50.932;5.342;2023-01-16T15:40:43;6.80;99.90
17988;DHT22;9119;50.932;5.342;2023-01-16T15:43:13;6.80;99.90
17988;DHT22;9119;50.932;5.342;2023-01-16T15:46:05;6.80;99.90
17988;DHT22;9119;50.932;5.342;2023-01-16T15:51:39;7.00;99.90
17988;DHT22;9119;50.932;5.342;2023-01-16T15:54:05;6.80;99.90
17988;DHT22;9119;50.932;5.342;2023-01-16T15:56:42;6.80;99.90
17988;DHT22;9119;50.932;5.342;2023-01-16T15:59:25;6.70;99.90
17988;DHT22;9119;50.932;5.342;2023-01-16T16:01:51;6.80;99.90
17988;DHT22;9119;50.932;5.342;2023-01-16T16:04:17;6.70;99.90
17988;DHT22;9119;50.932;5.342;2023-01-16T16:06:44;6.80;99.90
17988;DHT22;9119;50.932;5.342;2023-01-16T16:09:21;6.70;99.90
17988;DHT22;9119;50.932;5.342;2023-01-16T16:11:48;6.70;99.90
17988;DHT22;9119;50.932;5.342;2023-01-16T16:14:24;6.80;99.90
17988;DHT22;9119;50.932;5.342;2023-01-16T16:17:22;6.60;99.90
17988;DHT22;9119;50.932;5.342;2023-01-16T16:20:34;6.90;99.90
17988;DHT22;9119;50.932;5.342;2023-01-16T16:25:36;6.90;99.90
17988;DHT22;9119;50.932;5.342;2023-01-16T16:30:41;6.90;99.90
17988;DHT22;9119;50.932;5.342;2023-01-16T16:33:18;6.90;99.90
17988;DHT22;9119;50.932;5.342;2023-01-16T16:35:55;6.90;99.90
17988;DHT22;9119;50.932;5.342;2023-01-16T16:38:45;6.90;99.90
17988;DHT22;9119;50.932;5.342;2023-01-16T16:43:57;6.80;99.90
17988;DHT22;9119;50.932;5.342;2023-01-16T16:48:53;6.80;99.90
17988;DHT22;9119;50.932;5.342;2023-01-16T16:51:29;6.80;99.90
17988;DHT22;9119;50.932;5.342;2023-01-16T16:54:10;6.80;99.90
17988;DHT22;9119;50.932;5.342;2023-01-16T16:56:42;6.60;99.90
17988;DHT22;9119;50.932;5.342;2023-01-16T16:59:16;6.60;99.90
17988;DHT22;9119;50.932;5.342;2023-01-16T17:01:47;6.60;99.90
17988;DHT22;9119;50.932;5.342;2023-01-16T17:04:13;6.30;99.90
17988;DHT22;9119;50.932;5.342;2023-01-16T17:06:42;6.30;99.90
17988;DHT22;9119;50.932;5.342;2023-01-16T17:09:14;6.20;99.90
17988;DHT22;9119;50.932;5.342;2023-01-16T17:11:40;6.10;99.90
17988;DHT22;9119;50.932;5.342;2023-01-16T17:14:06;6.10;99.90
17988;DHT22;9119;50.932;5.342;2023-01-16T17:16:32;5.90;99.90
17988;DHT22;9119;50.932;5.342;2023-01-16T17:19:07;5.80;99.90
17988;DHT22;9119;50.932;5.342;2023-01-16T17:21:38;5.60;99.90
17988;DHT22;9119;50.932;5.342;2023-01-16T17:24:04;5.50;99.90
17988;DHT22;9119;50.932;5.342;2023-01-16T17:26:30;5.50;99.90
17988;DHT22;9119;50.932;5.342;2023-01-16T17:28:56;5.40;99.90
17988;DHT22;9119;50.932;5.342;2023-01-16T17:31:22;5.40;99.90
17988;DHT22;9119;50.932;5.342;2023-01-16T17:33:48;5.40;99.90
17988;DHT22;9119;50.932;5.342;2023-01-16T17:36:21;5.50;99.90
17988;DHT22;9119;50.932;5.342;2023-01-16T17:38:47;5.50;99.90
17988;DHT22;9119;50.932;5.342;2023-01-16T17:41:17;5.20;99.90
17988;DHT22;9119;50.932;5.342;2023-01-16T17:43:46;5.00;99.90
17988;DHT22;9119;50.932;5.342;2023-01-16T17:46:30;5.00;99.90
17988;DHT22;9119;50.932;5.342;2023-01-16T17:48:56;4.80;99.90
17988;DHT22;9119;50.932;5.342;2023-01-16T17:51:21;5.00;99.90
17988;DHT22;9119;50.932;5.342;2023-01-16T17:53:50;4.90;99.90
17988;DHT22;9119;50.932;5.342;2023-01-16T17:56:16;4.80;99.90
17988;DHT22;9119;50.932;5.342;2023-01-16T17:58:44;4.80;99.90
17988;DHT22;9119;50.932;5.342;2023-01-16T18:01:15;4.80;99.90
17988;DHT22;9119;50.932;5.342;2023-01-16T18:03:46;4.80;99.90
17988;DHT22;9119;50.932;5.342;2023-01-16T18:06:14;4.70;99.90
17988;DHT22;9119;50.932;5.342;2023-01-16T18:08:40;4.80;99.90
17988;DHT22;9119;50.932;5.342;2023-01-16T18:11:05;4.70;99.90
17988;DHT22;9119;50.932;5.342;2023-01-16T18:13:51;4.80;99.90
17988;DHT22;9119;50.932;5.342;2023-01-16T18:16:37;4.70;99.90
17988;DHT22;9119;50.932;5.342;2023-01-16T18:19:21;4.70;99.90
17988;DHT22;9119;50.932;5.342;2023-01-16T18:21:47;4.70;99.90
17988;DHT22;9119;50.932;5.342;2023-01-16T18:24:26;4.80;99.90
17988;DHT22;9119;50.932;5.342;2023-01-16T18:26:53;4.90;99.90
17988;DHT22;9119;50.932;5.342;2023-01-16T18:29:19;4.90;99.90
17988;DHT22;9119;50.932;5.342;2023-01-16T18:31:44;4.90;99.90
17988;DHT22;9119;50.932;5.342;2023-01-16T18:34:32;4.80;99.90
17988;DHT22;9119;50.932;5.342;2023-01-16T18:36:58;4.80;99.90
17988;DHT22;9119;50.932;5.342;2023-01-16T18:39:24;4.90;99.90
17988;DHT22;9119;50.932;5.342;2023-01-16T18:42:09;4.90;99.90
17988;DHT22;9119;50.932;5.342;2023-01-16T18:44:54;5.00;99.90
17988;DHT22;9119;50.932;5.342;2023-01-16T18:47:38;5.00;99.90
17988;DHT22;9119;50.932;5.342;2023-01-16T18:50:22;5.00;99.90
17988;DHT22;9119;50.932;5.342;2023-01-16T18:53:22;5.00;99.90
17988;DHT22;9119;50.932;5.342;2023-01-16T18:56:36;5.00;99.90
17988;DHT22;9119;50.932;5.342;2023-01-16T18:59:26;5.00;99.90
17988;DHT22;9119;50.932;5.342;2023-01-16T19:04:38;5.10;99.90
17988;DHT22;9119;50.932;5.342;2023-01-16T19:07:07;5.00;99.90
17988;DHT22;9119;50.932;5.342;2023-01-16T19:09:35;5.00;99.90
17988;DHT22;9119;50.932;5.342;2023-01-16T19:12:02;5.00;99.90
17988;DHT22;9119;50.932;5.342;2023-01-16T19:14:32;5.00;99.90
17988;DHT22;9119;50.932;5.342;2023-01-16T19:17:02;5.00;99.90
17988;DHT22;9119;50.932;5.342;2023-01-16T19:19:27;5.10;99.90
17988;DHT22;9119;50.932;5.342;2023-01-16T19:21:57;5.10;99.90